createdAt,value
2019-05-19T00:01:56.946Z,2.42
2019-05-19T00:04:25.267Z,2.27
2019-05-19T00:06:53.508Z,2.58
2019-05-19T00:09:21.749Z,2.98
2019-05-19T00:11:50.059Z,2.52
2019-05-19T00:14:18.296Z,2.42
2019-05-19T00:16:46.553Z,2.62
2019-05-19T00:19:26.211Z,2.62
2019-05-19T00:21:44.961Z,2.63
2019-05-19T00:24:13.186Z,2.20
2019-05-19T00:26:41.538Z,2.27
2019-05-19T00:29:09.768Z,2.65
2019-05-19T00:31:38.067Z,2.35
2019-05-19T00:34:06.369Z,2.30
2019-05-19T00:36:34.652Z,2.40
2019-05-19T00:39:04.431Z,2.27
2019-05-19T00:41:32.684Z,2.25
2019-05-19T00:44:00.916Z,2.17
2019-05-19T00:46:29.162Z,2.15
2019-05-19T00:48:57.471Z,2.50
2019-05-19T00:51:25.769Z,2.20
2019-05-19T00:53:54.010Z,2.22
2019-05-19T00:56:22.255Z,2.30
2019-05-19T00:58:50.485Z,2.35
2019-05-19T01:01:18.750Z,2.37
2019-05-19T01:03:47.008Z,2.30
2019-05-19T01:06:15.316Z,2.30
2019-05-19T01:08:43.556Z,2.55
2019-05-19T01:11:11.913Z,2.83
2019-05-19T01:13:40.242Z,2.85
2019-05-19T01:16:08.497Z,2.72
2019-05-19T01:18:36.765Z,3.20
2019-05-19T01:21:05.078Z,2.87
2019-05-19T01:23:33.331Z,3.22
2019-05-19T01:26:01.553Z,3.67
2019-05-19T01:28:29.817Z,3.47
2019-05-19T01:30:58.032Z,3.45
2019-05-19T01:33:26.343Z,3.35
2019-05-19T01:35:54.674Z,3.50
2019-05-19T01:38:22.990Z,3.67
2019-05-19T01:40:51.238Z,3.15
2019-05-19T01:43:19.495Z,3.58
2019-05-19T01:45:47.734Z,3.58
2019-05-19T01:48:15.987Z,3.47
2019-05-19T01:50:44.227Z,3.58
2019-05-19T01:53:12.472Z,3.60
2019-05-19T01:55:40.711Z,3.60
2019-05-19T01:58:09.038Z,4.22
2019-05-19T02:00:37.439Z,4.08
2019-05-19T02:03:05.692Z,4.17
2019-05-19T02:05:33.963Z,4.30
2019-05-19T02:08:02.307Z,4.97
2019-05-19T02:10:30.620Z,4.83
2019-05-19T02:12:58.933Z,4.72
2019-05-19T02:15:27.206Z,4.47
2019-05-19T02:17:55.442Z,5.08
2019-05-19T02:20:32.805Z,4.92
2019-05-19T02:22:53.649Z,4.15
2019-05-19T02:25:21.971Z,4.65
2019-05-19T02:27:50.238Z,5.75
2019-05-19T02:30:19.121Z,7.03
2019-05-19T02:32:47.354Z,7.00
2019-05-19T02:35:15.602Z,6.10
2019-05-19T02:37:43.835Z,5.80
2019-05-19T02:40:12.112Z,6.42
2019-05-19T02:42:41.317Z,6.83
2019-05-19T02:45:09.751Z,5.42
2019-05-19T02:47:38.526Z,6.15
2019-05-19T02:50:06.970Z,5.65
2019-05-19T02:52:35.185Z,5.78
2019-05-19T02:55:03.480Z,5.37
2019-05-19T02:57:32.387Z,5.70
2019-05-19T03:00:00.726Z,5.50
2019-05-19T03:02:28.970Z,5.78
2019-05-19T03:04:57.238Z,4.92
2019-05-19T03:07:26.942Z,4.90
2019-05-19T03:09:55.203Z,5.47
2019-05-19T03:12:23.459Z,5.60
2019-05-19T03:14:51.725Z,6.15
2019-05-19T03:17:19.975Z,6.08
2019-05-19T03:19:48.276Z,5.37
2019-05-19T03:22:16.563Z,5.17
2019-05-19T03:24:44.790Z,5.12
2019-05-19T03:27:13.069Z,5.00
2019-05-19T03:29:43.004Z,5.45
2019-05-19T03:32:21.901Z,5.05
2019-05-19T03:34:50.133Z,5.30
2019-05-19T03:37:18.390Z,5.65
2019-05-19T03:39:46.674Z,5.10
2019-05-19T03:42:14.945Z,5.45
2019-05-19T03:45:02.669Z,6.05
2019-05-19T03:47:30.917Z,6.05
2019-05-19T03:49:59.166Z,6.03
2019-05-19T03:52:27.781Z,6.37
2019-05-19T03:54:56.055Z,6.17
2019-05-19T03:57:24.438Z,5.87
2019-05-19T03:59:52.690Z,5.72
2019-05-19T04:02:20.943Z,5.83
2019-05-19T04:04:49.178Z,5.83
2019-05-19T04:07:17.444Z,5.45
2019-05-19T04:09:45.685Z,10.55
2019-05-19T04:12:13.949Z,45.70
2019-05-19T04:14:42.225Z,7.17
2019-05-19T04:17:10.489Z,5.70
2019-05-19T04:19:38.814Z,5.33
2019-05-19T04:22:07.051Z,6.22
2019-05-19T04:24:37.340Z,5.62
2019-05-19T04:27:05.591Z,5.25
2019-05-19T04:29:33.826Z,5.92
2019-05-19T04:32:02.065Z,6.05
2019-05-19T04:34:30.326Z,6.12
2019-05-19T04:36:58.553Z,6.55
2019-05-19T04:39:26.818Z,5.62
2019-05-19T04:41:55.043Z,6.53
2019-05-19T04:44:23.740Z,6.05
2019-05-19T04:46:51.963Z,6.62
2019-05-19T04:49:20.240Z,6.20
2019-05-19T04:52:05.176Z,5.25
2019-05-19T04:54:18.439Z,5.97
2019-05-19T04:56:46.681Z,6.12
2019-05-19T04:59:14.930Z,6.00
2019-05-19T05:01:43.185Z,5.75
2019-05-19T05:04:30.881Z,5.47
2019-05-19T05:06:59.109Z,6.65
2019-05-19T05:09:27.380Z,6.08
2019-05-19T05:11:55.629Z,5.70
2019-05-19T05:14:23.881Z,6.42
2019-05-19T05:16:52.145Z,6.00
2019-05-19T05:19:20.368Z,6.53
2019-05-19T05:21:48.645Z,6.75
2019-05-19T05:24:16.874Z,6.92
2019-05-19T05:26:45.121Z,7.30
2019-05-19T05:29:13.379Z,7.03
2019-05-19T05:31:41.644Z,7.67
2019-05-19T05:34:09.920Z,7.35
2019-05-19T05:36:38.190Z,7.92
2019-05-19T05:39:06.770Z,7.28
2019-05-19T05:41:35.034Z,7.85
2019-05-19T05:44:03.282Z,7.53
2019-05-19T05:46:31.621Z,8.18
2019-05-19T05:48:59.837Z,8.50
2019-05-19T05:51:28.089Z,7.92
2019-05-19T05:53:56.325Z,7.58
2019-05-19T05:56:24.619Z,9.30
2019-05-19T05:58:52.862Z,10.58
2019-05-19T06:01:21.126Z,10.35
2019-05-19T06:03:49.403Z,10.60
2019-05-19T06:06:17.712Z,11.88
2019-05-19T06:08:45.982Z,10.68
2019-05-19T06:11:14.238Z,11.20
2019-05-19T06:13:42.514Z,11.70
2019-05-19T06:16:10.813Z,11.53
2019-05-19T06:18:39.093Z,11.00
2019-05-19T06:21:07.413Z,10.95
2019-05-19T06:23:35.652Z,12.63
2019-05-19T06:26:03.907Z,11.80
2019-05-19T06:28:32.156Z,12.78
2019-05-19T06:31:00.407Z,13.22
2019-05-19T06:33:28.664Z,11.90
2019-05-19T06:35:56.910Z,12.60
2019-05-19T06:38:25.171Z,12.53
2019-05-19T06:40:53.435Z,12.45
2019-05-19T06:43:21.699Z,13.03
2019-05-19T06:45:49.927Z,12.47
2019-05-19T06:48:18.221Z,12.07
2019-05-19T06:50:46.462Z,11.43
2019-05-19T06:53:14.934Z,12.15
2019-05-19T06:55:43.358Z,12.15
2019-05-19T06:58:11.629Z,10.82
2019-05-19T07:00:40.010Z,11.35
2019-05-19T07:03:08.380Z,10.85
2019-05-19T07:05:36.652Z,11.90
2019-05-19T07:08:04.934Z,10.72
2019-05-19T07:10:33.188Z,10.03
2019-05-19T07:13:01.431Z,10.20
2019-05-19T07:15:29.695Z,9.08
2019-05-19T07:17:57.929Z,9.20
2019-05-19T07:20:26.193Z,8.78
2019-05-19T07:22:54.428Z,9.45
2019-05-19T07:25:22.709Z,9.00
2019-05-19T07:27:50.957Z,9.30
2019-05-19T07:30:19.271Z,9.25
2019-05-19T07:32:47.525Z,8.25
2019-05-19T07:35:15.851Z,8.13
2019-05-19T07:37:44.092Z,8.40
2019-05-19T07:40:12.364Z,7.85
2019-05-19T07:42:40.603Z,6.90
2019-05-19T07:45:08.961Z,7.70
2019-05-19T07:47:37.252Z,7.83
2019-05-19T07:50:05.874Z,6.92
2019-05-19T07:52:34.366Z,7.25
2019-05-19T07:55:03.281Z,7.47
2019-05-19T07:57:31.506Z,7.67
2019-05-19T07:59:59.784Z,6.92
2019-05-19T08:02:28.007Z,6.00
2019-05-19T08:04:56.284Z,5.62
2019-05-19T08:07:24.532Z,5.83
2019-05-19T08:09:52.797Z,5.35
2019-05-19T08:12:21.041Z,5.05
2019-05-19T08:14:49.284Z,5.75
2019-05-19T08:17:17.519Z,5.20
2019-05-19T08:19:45.846Z,4.97
2019-05-19T08:22:14.069Z,5.60
2019-05-19T08:24:42.318Z,5.22
2019-05-19T08:27:10.582Z,5.33
2019-05-19T08:29:38.833Z,6.00
2019-05-19T08:32:07.116Z,5.60
2019-05-19T08:34:35.366Z,5.28
2019-05-19T08:37:03.606Z,5.08
2019-05-19T08:39:32.076Z,5.50
2019-05-19T08:42:00.390Z,5.25
2019-05-19T08:44:28.703Z,5.60
2019-05-19T08:46:56.958Z,5.33
2019-05-19T08:49:25.312Z,5.25
2019-05-19T08:51:53.686Z,5.60
2019-05-19T08:54:21.925Z,6.40
2019-05-19T08:56:50.204Z,5.95
2019-05-19T08:59:18.451Z,6.95
2019-05-19T09:01:46.700Z,6.60
2019-05-19T09:04:14.943Z,6.42
2019-05-19T09:06:43.194Z,6.58
2019-05-19T09:09:11.541Z,5.90
2019-05-19T09:11:39.828Z,7.45
2019-05-19T09:14:08.079Z,6.42
2019-05-19T09:16:36.316Z,6.62
2019-05-19T09:19:04.867Z,6.97
2019-05-19T09:21:33.141Z,7.00
2019-05-19T09:24:01.506Z,7.08
2019-05-19T09:26:29.794Z,7.30
2019-05-19T09:28:58.261Z,7.45
2019-05-19T09:31:26.580Z,7.70
2019-05-19T09:33:54.840Z,8.13
2019-05-19T09:36:23.165Z,7.85
2019-05-19T09:38:51.658Z,7.97
2019-05-19T09:41:19.930Z,7.12
2019-05-19T09:43:48.205Z,8.15
2019-05-19T09:46:16.482Z,7.85
2019-05-19T09:48:44.823Z,6.95
2019-05-19T09:51:13.047Z,7.78
2019-05-19T09:53:41.425Z,7.90
2019-05-19T09:56:09.713Z,7.50
2019-05-19T09:58:37.973Z,7.65
2019-05-19T10:01:06.219Z,7.90
2019-05-19T10:03:34.477Z,7.53
2019-05-19T10:06:02.826Z,7.78
2019-05-19T10:08:36.115Z,7.53
2019-05-19T10:11:34.829Z,6.12
2019-05-19T10:14:03.080Z,6.20
2019-05-19T10:16:31.398Z,7.50
2019-05-19T10:18:59.659Z,7.30
2019-05-19T10:21:27.991Z,7.42
2019-05-19T10:23:56.287Z,6.58
2019-05-19T10:26:24.576Z,6.95
2019-05-19T10:28:52.807Z,5.83
2019-05-19T10:31:21.054Z,6.10
2019-05-19T10:33:49.461Z,6.05
2019-05-19T10:36:17.843Z,6.62
2019-05-19T10:38:46.085Z,5.67
2019-05-19T10:41:14.518Z,7.05
2019-05-19T10:43:42.780Z,6.50
2019-05-19T10:46:11.039Z,6.08
2019-05-19T10:48:39.280Z,6.92
2019-05-19T10:51:07.549Z,6.70
2019-05-19T10:53:35.790Z,6.60
2019-05-19T10:56:04.056Z,7.35
2019-05-19T10:58:32.363Z,6.87
2019-05-19T11:01:00.654Z,6.67
2019-05-19T11:03:28.889Z,6.50
2019-05-19T11:05:57.155Z,7.67
2019-05-19T11:08:25.418Z,8.13
2019-05-19T11:10:53.744Z,6.65
2019-05-19T11:13:21.982Z,7.40
2019-05-19T11:15:50.237Z,7.80
2019-05-19T11:18:18.485Z,7.97
2019-05-19T11:20:46.739Z,7.42
2019-05-19T11:23:15.011Z,7.15
2019-05-19T11:25:51.006Z,7.58
2019-05-19T11:28:13.268Z,7.40
2019-05-19T11:30:41.506Z,7.10
2019-05-19T11:33:09.776Z,6.67
2019-05-19T11:35:37.989Z,6.78
2019-05-19T11:38:06.252Z,6.55
2019-05-19T11:40:34.491Z,6.72
2019-05-19T11:43:02.747Z,6.60
2019-05-19T11:45:30.983Z,5.17
2019-05-19T11:47:59.234Z,6.00
2019-05-19T11:50:27.466Z,5.30
2019-05-19T11:52:55.920Z,5.53
2019-05-19T11:55:24.220Z,5.83
2019-05-19T11:57:54.805Z,5.72
2019-05-19T12:00:23.052Z,5.03
2019-05-19T12:02:51.334Z,4.97
2019-05-19T12:05:19.581Z,5.10
2019-05-19T12:07:47.880Z,5.28
2019-05-19T12:10:16.113Z,5.15
2019-05-19T12:12:44.376Z,5.03
2019-05-19T12:15:12.618Z,4.53
2019-05-19T12:17:40.910Z,4.50
2019-05-19T12:20:09.159Z,4.40
2019-05-19T12:22:37.523Z,5.53
2019-05-19T12:25:06.202Z,4.37
2019-05-19T12:27:34.504Z,4.37
2019-05-19T12:30:02.784Z,4.47
2019-05-19T12:32:31.025Z,4.65
2019-05-19T12:34:59.280Z,5.20
2019-05-19T12:37:27.531Z,5.22
2019-05-19T12:39:55.785Z,4.30
2019-05-19T12:42:24.057Z,4.42
2019-05-19T12:44:52.310Z,4.05
2019-05-19T12:47:20.546Z,4.62
2019-05-19T12:49:48.891Z,5.22
2019-05-19T12:52:17.157Z,4.50
2019-05-19T12:54:45.433Z,4.33
2019-05-19T12:57:13.736Z,4.17
2019-05-19T12:59:41.980Z,4.35
2019-05-19T13:02:10.241Z,4.87
2019-05-19T13:04:38.693Z,4.80
2019-05-19T13:07:07.144Z,4.70
2019-05-19T13:09:35.391Z,4.05
2019-05-19T13:12:03.713Z,4.17
2019-05-19T13:14:32.080Z,3.98
2019-05-19T13:17:00.307Z,4.28
2019-05-19T13:19:28.579Z,3.95
2019-05-19T13:21:56.829Z,3.85
2019-05-19T13:24:25.076Z,3.85
2019-05-19T13:26:56.545Z,4.17
2019-05-19T13:29:23.286Z,3.70
2019-05-19T13:31:51.562Z,3.75
2019-05-19T13:34:19.811Z,4.20
2019-05-19T13:36:48.061Z,3.90
2019-05-19T13:39:16.308Z,3.60
2019-05-19T13:41:44.596Z,3.30
2019-05-19T13:44:12.849Z,3.50
2019-05-19T13:46:41.113Z,3.45
2019-05-19T13:49:09.347Z,3.62
2019-05-19T13:51:37.608Z,3.50
2019-05-19T13:54:05.931Z,3.60
2019-05-19T13:56:34.177Z,3.35
2019-05-19T13:59:02.492Z,3.12
2019-05-19T14:01:30.779Z,3.00
2019-05-19T14:03:59.009Z,3.40
2019-05-19T14:06:27.478Z,3.12
2019-05-19T14:08:55.748Z,2.98
2019-05-19T14:11:24.040Z,2.30
2019-05-19T14:13:52.308Z,3.02
2019-05-19T14:16:20.536Z,2.75
2019-05-19T14:18:48.818Z,3.25
2019-05-19T14:21:17.145Z,2.92
2019-05-19T14:23:45.466Z,3.27
2019-05-19T14:26:13.688Z,3.12
2019-05-19T14:28:41.998Z,2.90
2019-05-19T14:31:10.234Z,2.90
2019-05-19T14:33:38.596Z,2.87
2019-05-19T14:36:06.848Z,2.37
2019-05-19T14:38:35.178Z,3.00
2019-05-19T14:41:03.530Z,2.22
2019-05-19T14:43:33.460Z,2.75
2019-05-19T14:46:01.801Z,2.72
2019-05-19T14:48:30.069Z,2.33
2019-05-19T14:50:58.310Z,3.15
2019-05-19T14:53:26.586Z,2.62
2019-05-19T14:55:54.857Z,3.08
2019-05-19T14:58:23.155Z,3.47
2019-05-19T15:00:51.379Z,3.20
2019-05-19T15:03:19.687Z,3.83
2019-05-19T15:05:47.975Z,3.85
2019-05-19T15:08:16.392Z,4.67
2019-05-19T15:10:44.664Z,4.40
2019-05-19T15:13:12.901Z,4.35
2019-05-19T15:15:41.190Z,4.62
2019-05-19T15:18:09.423Z,4.15
2019-05-19T15:20:37.690Z,4.50
2019-05-19T15:23:05.944Z,4.58
2019-05-19T15:25:34.189Z,4.33
2019-05-19T15:28:05.259Z,3.85
2019-05-19T15:30:32.423Z,4.95
2019-05-19T15:33:00.660Z,4.85
2019-05-19T15:35:28.948Z,5.08
2019-05-19T15:37:57.180Z,4.42
2019-05-19T15:40:25.462Z,4.47
2019-05-19T15:42:53.687Z,4.03
2019-05-19T15:45:21.942Z,4.50
2019-05-19T15:47:50.216Z,4.40
2019-05-19T15:50:18.466Z,4.62
2019-05-19T15:52:46.714Z,4.28
2019-05-19T15:55:14.951Z,4.55
2019-05-19T15:57:43.197Z,5.08
2019-05-19T16:00:11.491Z,4.87
2019-05-19T16:02:39.725Z,5.30
2019-05-19T16:05:07.999Z,4.28
2019-05-19T16:07:36.236Z,4.60
2019-05-19T16:10:06.573Z,4.37
2019-05-19T16:12:34.859Z,5.20
2019-05-19T16:15:04.397Z,5.50
2019-05-19T16:17:32.642Z,5.15
2019-05-19T16:20:00.903Z,5.50
2019-05-19T16:22:29.173Z,5.05
2019-05-19T16:24:57.406Z,5.33
2019-05-19T16:27:25.713Z,4.67
2019-05-19T16:29:54.000Z,4.80
2019-05-19T16:32:22.279Z,5.20
2019-05-19T16:34:50.539Z,5.25
2019-05-19T16:37:18.798Z,5.20
2019-05-19T16:39:47.031Z,4.53
2019-05-19T16:42:15.334Z,5.80
2019-05-19T16:44:43.629Z,4.90
2019-05-19T16:47:11.889Z,5.60
2019-05-19T16:49:40.122Z,5.37
2019-05-19T16:52:09.075Z,5.20
2019-05-19T16:54:42.092Z,5.17
2019-05-19T16:57:08.945Z,5.28
2019-05-19T16:59:37.203Z,4.75
2019-05-19T17:02:05.483Z,4.67
2019-05-19T17:04:33.733Z,4.83
2019-05-19T17:07:03.097Z,5.22
2019-05-19T17:09:31.588Z,5.25
2019-05-19T17:11:59.883Z,4.78
2019-05-19T17:14:40.964Z,5.30
2019-05-19T17:17:09.237Z,4.95
2019-05-19T17:19:37.486Z,5.35
2019-05-19T17:22:05.763Z,5.35
2019-05-19T17:24:34.030Z,4.87
2019-05-19T17:27:02.319Z,5.10
2019-05-19T17:29:30.666Z,4.78
2019-05-19T17:32:05.929Z,4.80
2019-05-19T17:34:29.039Z,5.53
2019-05-19T17:36:57.353Z,5.08
2019-05-19T17:39:25.622Z,5.40
2019-05-19T17:41:53.893Z,5.67
2019-05-19T17:44:22.182Z,4.92
2019-05-19T17:46:50.434Z,5.08
2019-05-19T17:49:18.734Z,5.10
2019-05-19T17:51:46.989Z,5.30
2019-05-19T17:54:15.316Z,5.70
2019-05-19T17:56:43.558Z,5.20
2019-05-19T17:59:16.601Z,4.92
2019-05-19T18:01:42.477Z,5.35
2019-05-19T18:04:10.757Z,5.30
2019-05-19T18:06:39.000Z,5.50
2019-05-19T18:09:07.302Z,5.55
2019-05-19T18:11:35.549Z,5.03
2019-05-19T18:14:03.823Z,5.12
2019-05-19T18:16:32.126Z,4.45
2019-05-19T18:19:00.392Z,4.22
2019-05-19T18:21:28.697Z,4.40
2019-05-19T18:23:57.027Z,4.75
2019-05-19T18:26:25.351Z,4.42
2019-05-19T18:28:53.606Z,4.72
2019-05-19T18:31:21.879Z,5.10
2019-05-19T18:33:50.141Z,4.83
2019-05-19T18:36:18.407Z,5.47
2019-05-19T18:38:46.657Z,5.42
2019-05-19T18:41:14.989Z,5.08
2019-05-19T18:43:43.254Z,5.95
2019-05-19T18:46:11.516Z,6.08
2019-05-19T18:48:39.918Z,6.90
2019-05-19T18:51:08.188Z,5.92
2019-05-19T18:53:36.448Z,5.37
2019-05-19T18:56:04.709Z,5.33
2019-05-19T18:58:32.972Z,5.85
2019-05-19T19:01:01.286Z,5.53
2019-05-19T19:03:29.637Z,5.72
2019-05-19T19:05:57.896Z,6.50
2019-05-19T19:08:26.142Z,6.03
2019-05-19T19:10:54.427Z,6.20
2019-05-19T19:13:22.689Z,6.25
2019-05-19T19:15:51.003Z,6.03
2019-05-19T19:18:19.281Z,6.10
2019-05-19T19:20:47.530Z,6.17
2019-05-19T19:23:15.791Z,5.97
2019-05-19T19:25:44.018Z,6.37
2019-05-19T19:28:12.478Z,5.42
2019-05-19T19:30:40.732Z,5.87
2019-05-19T19:33:09.019Z,5.83
2019-05-19T19:35:39.529Z,6.03
2019-05-19T19:38:07.261Z,6.03
2019-05-19T19:40:35.523Z,6.50
2019-05-19T19:43:03.912Z,6.67
2019-05-19T19:45:32.161Z,6.87
2019-05-19T19:48:00.414Z,6.90
2019-05-19T19:50:28.911Z,7.50
2019-05-19T19:52:57.323Z,7.72
2019-05-19T19:55:25.538Z,7.45
2019-05-19T19:57:53.892Z,7.28
2019-05-19T20:00:40.483Z,8.00
2019-05-19T20:03:08.888Z,7.20
2019-05-19T20:05:37.408Z,7.97
2019-05-19T20:08:06.532Z,7.85
2019-05-19T20:10:38.570Z,7.08
2019-05-19T20:13:06.906Z,7.30
2019-05-19T20:15:36.824Z,7.00
2019-05-19T20:18:05.061Z,6.78
2019-05-19T20:20:33.334Z,7.40
2019-05-19T20:23:01.584Z,7.25
2019-05-19T20:25:29.838Z,7.08
2019-05-19T20:27:58.094Z,7.28
2019-05-19T20:30:35.212Z,7.10
2019-05-19T20:32:56.368Z,7.10
2019-05-19T20:35:24.662Z,8.25
2019-05-19T20:37:52.905Z,8.60
2019-05-19T20:40:21.185Z,8.73
2019-05-19T20:42:49.392Z,6.40
2019-05-19T20:45:17.668Z,5.28
2019-05-19T20:47:45.973Z,5.95
2019-05-19T20:50:14.290Z,4.60
2019-05-19T20:52:42.517Z,4.58
2019-05-19T20:55:10.777Z,4.75
2019-05-19T20:57:39.055Z,4.70
2019-05-19T21:00:07.393Z,4.58
2019-05-19T21:02:35.622Z,5.58
2019-05-19T21:05:04.117Z,5.40
2019-05-19T21:07:32.397Z,5.28
2019-05-19T21:10:00.642Z,4.65
2019-05-19T21:12:28.876Z,4.80
2019-05-19T21:14:57.177Z,5.80
2019-05-19T21:17:25.418Z,4.33
2019-05-19T21:19:53.667Z,4.30
2019-05-19T21:22:21.945Z,2.90
2019-05-19T21:24:50.198Z,3.12
2019-05-19T21:27:18.866Z,2.55
2019-05-19T21:29:47.296Z,3.83
2019-05-19T21:32:15.547Z,4.25
2019-05-19T21:34:43.794Z,4.70
2019-05-19T21:37:12.070Z,4.90
2019-05-19T21:39:40.319Z,4.42
2019-05-19T21:42:08.574Z,4.08
2019-05-19T21:44:36.842Z,4.03
2019-05-19T21:47:05.108Z,3.20
2019-05-19T21:49:33.337Z,3.30
2019-05-19T21:52:01.614Z,2.90
2019-05-19T21:54:29.918Z,2.98
2019-05-19T21:56:58.172Z,3.55
2019-05-19T21:59:26.418Z,3.20
2019-05-19T22:01:54.745Z,3.30
2019-05-19T22:04:23.008Z,3.72
2019-05-19T22:07:02.149Z,3.45
2019-05-19T22:09:30.377Z,3.27
2019-05-19T22:11:58.639Z,2.27
2019-05-19T22:14:26.951Z,2.27
2019-05-19T22:16:55.232Z,1.90
2019-05-19T22:19:23.546Z,1.65
2019-05-19T22:21:51.829Z,1.70
2019-05-19T22:24:20.065Z,1.72
2019-05-19T22:26:48.340Z,1.80
2019-05-19T22:29:16.590Z,1.42
2019-05-19T22:31:44.858Z,1.30
2019-05-19T22:34:13.093Z,1.20
2019-05-19T22:36:41.380Z,1.52
2019-05-19T22:39:09.663Z,1.50
2019-05-19T22:41:37.882Z,1.80
2019-05-19T22:44:06.133Z,1.55
2019-05-19T22:46:34.369Z,1.55
2019-05-19T22:49:02.657Z,1.95
2019-05-19T22:51:30.898Z,1.98
2019-05-19T22:53:59.141Z,1.65
2019-05-19T22:56:27.394Z,1.65
2019-05-19T22:58:55.669Z,1.80
2019-05-19T23:01:23.892Z,1.80
2019-05-19T23:03:52.139Z,1.70
2019-05-19T23:06:20.402Z,2.00
2019-05-19T23:08:48.672Z,2.20
2019-05-19T23:11:16.916Z,1.82
2019-05-19T23:13:45.175Z,2.05
2019-05-19T23:16:13.476Z,2.45
2019-05-19T23:18:41.757Z,2.27
2019-05-19T23:21:09.996Z,2.37
2019-05-19T23:23:38.249Z,1.95
2019-05-19T23:26:06.490Z,1.87
2019-05-19T23:28:34.737Z,1.85
2019-05-19T23:31:03.003Z,1.75
2019-05-19T23:33:31.244Z,1.98
2019-05-19T23:35:59.482Z,1.70
2019-05-19T23:38:27.710Z,1.60
2019-05-19T23:40:56.004Z,2.00
2019-05-19T23:43:24.249Z,1.60
2019-05-19T23:45:52.521Z,1.90
2019-05-19T23:48:20.777Z,1.70
2019-05-19T23:50:49.045Z,1.62
2019-05-19T23:53:17.277Z,2.02
2019-05-19T23:55:45.529Z,1.98
2019-05-19T23:58:13.764Z,1.70
